Time;durP1;ratioP1;P1;durP2;ratioP2;P2;SDS_P1;SDS_P2;PMS_P1;PMS_P2;Temp;Humidity;BMP_temperature;BMP_pressure;BME280_temperature;BME280_humidity;BME280_pressure;Samples;Min_cycle;Max_cycle;Signal;HPM_P1;HPM_P2
2023/09/11 00:00:41;;;;;;;15.80;7.10;;;;;;;;;;4942809;29;20453;-88
2023/09/11 00:03:07;;;;;;;17.98;8.05;;;;;;;;;;4946118;28;20043;-89
2023/09/11 00:05:33;;;;;;;14.15;7.82;;;;;;;;;;4960140;28;20020;-88
2023/09/11 00:07:59;;;;;;;14.50;7.35;;;;;;;;;;4942743;28;20043;-89
2023/09/11 00:10:25;;;;;;;20.23;8.73;;;;;;;;;;4933221;29;20555;-86
2023/09/11 00:12:51;;;;;;;11.55;7.43;;;;;;;;;;4939815;28;20445;-87
2023/09/11 00:15:17;;;;;;;15.25;7.57;;;;;;;;;;4946266;29;20071;-85
2023/09/11 00:17:43;;;;;;;15.50;8.05;;;;;;;;;;4949917;28;20034;-88
2023/09/11 00:20:13;;;;;;;18.55;8.07;;;;;;;;;;4943099;29;20047;-87
2023/09/11 00:22:39;;;;;;;18.17;7.77;;;;;;;;;;4941423;29;20027;-88
2023/09/11 00:25:06;;;;;;;14.68;7.60;;;;;;;;;;4941671;29;20298;-90
2023/09/11 00:27:32;;;;;;;17.27;7.80;;;;;;;;;;4939753;29;20055;-90
2023/09/11 00:29:58;;;;;;;14.82;7.13;;;;;;;;;;4922692;29;20043;-89
2023/09/11 00:32:24;;;;;;;13.93;8.32;;;;;;;;;;4938692;29;20032;-87
2023/09/11 00:34:50;;;;;;;16.27;7.78;;;;;;;;;;4947484;28;20038;-89
2023/09/11 00:37:17;;;;;;;18.65;8.18;;;;;;;;;;4958434;28;20023;-89
2023/09/11 00:39:43;;;;;;;16.20;7.97;;;;;;;;;;4958467;28;20028;-89
2023/09/11 00:42:09;;;;;;;13.85;7.53;;;;;;;;;;4952527;28;20837;-87
2023/09/11 00:44:35;;;;;;;16.02;8.50;;;;;;;;;;4954883;28;20031;-88
2023/09/11 00:47:04;;;;;;;15.55;7.65;;;;;;;;;;4943969;29;20521;-90
2023/09/11 00:49:31;;;;;;;16.15;7.55;;;;;;;;;;4940948;29;20027;-89
2023/09/11 00:51:58;;;;;;;13.55;7.68;;;;;;;;;;4940624;29;20043;-88
2023/09/11 00:54:24;;;;;;;18.25;7.47;;;;;;;;;;4932617;29;20028;-90
2023/09/11 00:56:50;;;;;;;15.65;7.45;;;;;;;;;;4935846;29;20024;-89
2023/09/11 00:59:16;;;;;;;18.08;8.25;;;;;;;;;;4944809;28;20055;-89
2023/09/11 01:01:42;;;;;;;13.65;7.70;;;;;;;;;;4940912;29;20036;-88
2023/09/11 01:04:09;;;;;;;12.70;7.93;;;;;;;;;;4946694;28;20328;-88
2023/09/11 01:06:35;;;;;;;15.35;8.27;;;;;;;;;;4944632;29;20065;-89
2023/09/11 01:09:02;;;;;;;15.40;7.53;;;;;;;;;;4942052;29;20054;-89
2023/09/11 01:11:28;;;;;;;16.50;7.97;;;;;;;;;;4943033;29;20038;-89
2023/09/11 01:13:55;;;;;;;14.25;7.43;;;;;;;;;;4948403;29;20121;-89
2023/09/11 01:16:27;;;;;;;14.57;7.85;;;;;;;;;;4942105;29;20038;-88
2023/09/11 01:18:59;;;;;;;12.57;7.38;;;;;;;;;;4950068;29;20134;-89
2023/09/11 01:21:48;;;;;;;13.13;7.22;;;;;;;;;;4941281;29;20051;-90
2023/09/11 01:24:30;;;;;;;18.17;7.47;;;;;;;;;;4947555;28;20040;-89
2023/09/11 01:26:59;;;;;;;12.20;7.10;;;;;;;;;;4941611;29;20044;-89
2023/09/11 01:29:28;;;;;;;22.52;8.65;;;;;;;;;;4937555;29;20039;-90
2023/09/11 01:31:55;;;;;;;14.82;7.97;;;;;;;;;;4942026;29;20034;-90
2023/09/11 01:34:21;;;;;;;15.57;8.10;;;;;;;;;;4934267;29;20032;-88
2023/09/11 01:36:47;;;;;;;11.15;7.25;;;;;;;;;;4939764;29;20030;-90
2023/09/11 01:39:13;;;;;;;14.95;7.47;;;;;;;;;;4945320;29;20071;-88
2023/09/11 01:41:41;;;;;;;16.75;8.30;;;;;;;;;;4946703;29;20036;-86
2023/09/11 01:44:13;;;;;;;13.35;7.28;;;;;;;;;;4955385;28;20028;-87
2023/09/11 01:46:40;;;;;;;13.40;7.13;;;;;;;;;;4954285;28;20055;-86
2023/09/11 01:49:08;;;;;;;14.98;8.50;;;;;;;;;;4944211;29;20035;-87
2023/09/11 01:51:34;;;;;;;11.85;7.82;;;;;;;;;;4934323;29;20099;-88
2023/09/11 01:54:00;;;;;;;14.13;7.57;;;;;;;;;;4953234;28;20043;-88
2023/09/11 01:56:26;;;;;;;14.98;7.65;;;;;;;;;;4939319;29;20114;-87
2023/09/11 01:58:56;;;;;;;16.67;8.20;;;;;;;;;;4937935;29;20058;-86
2023/09/11 02:01:26;;;;;;;16.13;8.23;;;;;;;;;;4946846;28;20034;-86
2023/09/11 02:03:52;;;;;;;12.93;8.23;;;;;;;;;;4936303;29;20024;-87
2023/09/11 02:06:18;;;;;;;16.42;7.82;;;;;;;;;;4930751;29;20033;-87
2023/09/11 02:08:44;;;;;;;12.98;7.53;;;;;;;;;;4935051;29;20031;-87
2023/09/11 02:11:22;;;;;;;16.63;7.75;;;;;;;;;;4936119;29;20034;-86
2023/09/11 02:13:53;;;;;;;14.32;8.30;;;;;;;;;;4938392;29;20043;-84
2023/09/11 02:16:19;;;;;;;15.15;8.00;;;;;;;;;;4942425;29;20032;-87
2023/09/11 02:18:46;;;;;;;16.05;8.38;;;;;;;;;;4941274;29;20028;-89
2023/09/11 02:21:14;;;;;;;13.98;7.72;;;;;;;;;;4938456;29;20036;-86
2023/09/11 02:23:46;;;;;;;16.52;8.20;;;;;;;;;;4929283;29;20040;-88
2023/09/11 02:26:15;;;;;;;15.80;8.38;;;;;;;;;;4942669;29;20035;-85
2023/09/11 02:28:44;;;;;;;14.48;7.55;;;;;;;;;;4934230;29;20486;-87
2023/09/11 02:31:10;;;;;;;17.95;7.97;;;;;;;;;;4937456;29;20043;-87
2023/09/11 02:33:38;;;;;;;16.83;8.88;;;;;;;;;;4942697;29;20106;-90
2023/09/11 02:36:07;;;;;;;15.85;8.30;;;;;;;;;;4936913;29;20031;-90
2023/09/11 02:38:34;;;;;;;11.90;8.25;;;;;;;;;;4941069;29;20027;-86
2023/09/11 02:41:11;;;;;;;11.35;7.95;;;;;;;;;;4939063;29;20031;-88
2023/09/11 02:43:37;;;;;;;17.33;8.18;;;;;;;;;;4946866;29;20038;-89
2023/09/11 02:46:03;;;;;;;17.05;8.23;;;;;;;;;;4949286;29;20047;-89
2023/09/11 02:48:34;;;;;;;19.58;8.30;;;;;;;;;;4941908;29;20118;-90
2023/09/11 02:51:19;;;;;;;;;;;;;;;;;;;;;
2023/09/11 02:53:45;;;;;;;11.77;7.35;;;;;;;;;;4937920;29;20110;-89
2023/09/11 02:56:17;;;;;;;19.30;8.88;;;;;;;;;;4941755;29;20031;-88
2023/09/11 02:58:46;;;;;;;15.80;8.25;;;;;;;;;;4934425;29;20494;-86
2023/09/11 03:01:21;;;;;;;14.73;7.65;;;;;;;;;;4939345;29;20116;-89
2023/09/11 03:03:50;;;;;;;14.07;7.95;;;;;;;;;;4933833;29;20608;-89
2023/09/11 03:06:16;;;;;;;14.00;8.80;;;;;;;;;;4951401;28;20031;-88
2023/09/11 03:08:44;;;;;;;14.88;8.05;;;;;;;;;;4949075;29;20035;-87
2023/09/11 03:11:18;;;;;;;15.43;9.05;;;;;;;;;;4962721;28;20027;-88
2023/09/11 03:14:02;;;;;;;14.25;8.35;;;;;;;;;;4941696;28;20035;-91
2023/09/11 03:16:59;;;;;;;12.40;8.40;;;;;;;;;;4937413;29;20039;-89
2023/09/11 03:19:28;;;;;;;17.48;9.07;;;;;;;;;;4934368;29;20028;-90
2023/09/11 03:22:13;;;;;;;15.82;8.90;;;;;;;;;;4939894;29;20038;-88
2023/09/11 03:24:59;;;;;;;17.83;7.85;;;;;;;;;;4940330;29;20032;-88
2023/09/11 03:27:31;;;;;;;14.95;7.47;;;;;;;;;;4937397;29;20035;-87
2023/09/11 03:30:17;;;;;;;15.68;7.75;;;;;;;;;;4943630;29;20035;-88
2023/09/11 03:32:49;;;;;;;16.75;9.15;;;;;;;;;;4939661;29;20071;-91
2023/09/11 03:35:24;;;;;;;13.85;7.90;;;;;;;;;;4938797;29;20024;-89
2023/09/11 03:37:53;;;;;;;19.58;8.77;;;;;;;;;;4935786;29;20036;-89
2023/09/11 03:40:45;;;;;;;15.82;8.77;;;;;;;;;;4941167;29;20050;-88
2023/09/11 03:43:17;;;;;;;15.30;7.55;;;;;;;;;;4938546;29;20044;-88
2023/09/11 03:45:48;;;;;;;17.95;8.57;;;;;;;;;;4937225;29;20196;-88
2023/09/11 03:48:34;;;;;;;12.45;8.63;;;;;;;;;;4936893;29;20031;-88
2023/09/11 03:51:00;;;;;;;14.23;8.20;;;;;;;;;;4946506;29;20028;-88
2023/09/11 03:53:26;;;;;;;13.57;8.30;;;;;;;;;;4951117;28;20044;-86
2023/09/11 03:55:52;;;;;;;15.07;8.55;;;;;;;;;;4950150;28;20038;-88
2023/09/11 03:58:26;;;;;;;20.95;8.15;;;;;;;;;;4956721;28;20615;-87
2023/09/11 04:00:54;;;;;;;12.45;8.07;;;;;;;;;;4945535;29;20024;-88
2023/09/11 04:03:20;;;;;;;14.20;8.55;;;;;;;;;;4943969;29;20031;-88
2023/09/11 04:05:52;;;;;;;15.40;8.60;;;;;;;;;;4945440;29;20046;-86
2023/09/11 04:08:21;;;;;;;16.60;8.40;;;;;;;;;;4937928;29;20083;-89
2023/09/11 04:10:57;;;;;;;16.20;8.70;;;;;;;;;;4940265;29;20143;-87
2023/09/11 04:13:26;;;;;;;17.90;8.63;;;;;;;;;;4939488;29;20031;-90
2023/09/11 04:16:06;;;;;;;14.32;9.05;;;;;;;;;;4941574;29;20035;-89
2023/09/11 04:18:42;;;;;;;;;;;;;;;;;;;;;
2023/09/11 04:21:16;;;;;;;12.90;8.45;;;;;;;;;;4937958;29;20142;-89
2023/09/11 04:23:47;;;;;;;15.70;8.93;;;;;;;;;;4942401;29;20051;-87
2023/09/11 04:26:14;;;;;;;16.05;9.43;;;;;;;;;;4937015;29;20031;-89
2023/09/11 04:28:59;;;;;;;13.05;8.18;;;;;;;;;;4943583;29;20047;-89
2023/09/11 04:31:32;;;;;;;15.65;8.35;;;;;;;;;;4930206;29;20512;-88
2023/09/11 04:33:58;;;;;;;16.17;8.48;;;;;;;;;;4941310;28;20036;-89
2023/09/11 04:36:24;;;;;;;19.55;9.27;;;;;;;;;;4943658;29;20157;-90
2023/09/11 04:38:50;;;;;;;13.63;8.70;;;;;;;;;;4939943;29;20062;-89
2023/09/11 04:41:16;;;;;;;18.08;8.50;;;;;;;;;;4947172;28;20021;-89
2023/09/11 04:43:43;;;;;;;16.98;9.07;;;;;;;;;;4954467;28;20027;-89
2023/09/11 04:46:09;;;;;;;14.48;7.88;;;;;;;;;;4933373;28;20036;-90
2023/09/11 04:48:36;;;;;;;23.08;8.85;;;;;;;;;;4940145;29;20071;-89
2023/09/11 04:51:02;;;;;;;14.48;9.23;;;;;;;;;;4939013;29;20043;-89
2023/09/11 04:53:28;;;;;;;16.88;9.02;;;;;;;;;;4937617;29;20031;-89
2023/09/11 04:55:56;;;;;;;14.77;8.57;;;;;;;;;;4946094;29;20031;-89
2023/09/11 04:58:22;;;;;;;19.35;8.90;;;;;;;;;;4941846;28;20023;-91
2023/09/11 05:00:48;;;;;;;13.65;8.25;;;;;;;;;;4934333;29;20056;-90
2023/09/11 05:03:15;;;;;;;19.38;8.80;;;;;;;;;;4935656;29;20046;-89
2023/09/11 05:05:41;;;;;;;14.68;8.80;;;;;;;;;;4931001;29;20028;-88
2023/09/11 05:08:07;;;;;;;14.23;8.85;;;;;;;;;;4934391;28;20035;-89
2023/09/11 05:10:36;;;;;;;15.45;8.98;;;;;;;;;;4931948;29;20039;-89
2023/09/11 05:13:02;;;;;;;17.50;9.27;;;;;;;;;;4937317;29;20028;-88
2023/09/11 05:15:28;;;;;;;16.83;9.98;;;;;;;;;;4934523;28;20028;-91
2023/09/11 05:17:55;;;;;;;13.60;9.60;;;;;;;;;;4935760;29;20542;-88
2023/09/11 05:20:21;;;;;;;17.83;9.27;;;;;;;;;;4933844;29;20023;-87
2023/09/11 05:22:47;;;;;;;16.27;8.55;;;;;;;;;;4943019;29;20024;-86
2023/09/11 05:25:13;;;;;;;17.75;10.10;;;;;;;;;;4946043;29;20047;-87
2023/09/11 05:27:39;;;;;;;15.00;8.70;;;;;;;;;;4934789;29;20060;-88
2023/09/11 05:30:06;;;;;;;17.80;9.98;;;;;;;;;;4936490;28;20450;-87
2023/09/11 05:32:32;;;;;;;19.13;11.30;;;;;;;;;;4934799;29;20032;-88
2023/09/11 05:34:58;;;;;;;17.00;9.20;;;;;;;;;;4939677;29;20058;-89
2023/09/11 05:37:24;;;;;;;21.58;9.43;;;;;;;;;;4939325;29;20043;-88
2023/09/11 05:39:50;;;;;;;19.83;9.38;;;;;;;;;;4934896;29;20027;-87
2023/09/11 05:42:16;;;;;;;22.08;9.88;;;;;;;;;;4923797;29;20048;-88
2023/09/11 05:44:43;;;;;;;19.42;8.80;;;;;;;;;;4950772;28;20110;-87
2023/09/11 05:47:09;;;;;;;18.35;9.57;;;;;;;;;;4936206;29;20019;-89
2023/09/11 05:49:35;;;;;;;16.65;9.60;;;;;;;;;;4940091;28;20036;-89
2023/09/11 05:52:02;;;;;;;15.82;9.35;;;;;;;;;;4928218;29;20047;-87
2023/09/11 05:54:29;;;;;;;16.15;9.10;;;;;;;;;;4930356;29;23138;-88
2023/09/11 05:56:55;;;;;;;15.23;8.90;;;;;;;;;;4936552;29;20058;-88
2023/09/11 05:59:21;;;;;;;18.73;9.40;;;;;;;;;;4933578;29;20098;-87
2023/09/11 06:01:47;;;;;;;19.63;9.27;;;;;;;;;;4931503;29;20024;-86
2023/09/11 06:04:13;;;;;;;16.27;10.02;;;;;;;;;;4930593;29;20490;-85
2023/09/11 06:06:40;;;;;;;16.08;9.57;;;;;;;;;;4944592;28;20046;-87
2023/09/11 06:09:08;;;;;;;16.95;9.90;;;;;;;;;;4939503;29;20417;-85
2023/09/11 06:11:34;;;;;;;24.40;10.07;;;;;;;;;;4934695;29;20502;-86
2023/09/11 06:14:00;;;;;;;15.63;9.27;;;;;;;;;;4939996;28;20027;-87
2023/09/11 06:16:26;;;;;;;16.35;9.70;;;;;;;;;;4932973;29;20043;-86
2023/09/11 06:18:52;;;;;;;54.50;13.65;;;;;;;;;;4939700;29;20035;-85
2023/09/11 06:21:18;;;;;;;16.98;9.90;;;;;;;;;;4942234;29;20028;-85
2023/09/11 06:23:44;;;;;;;17.80;9.80;;;;;;;;;;4937987;28;20020;-87
2023/09/11 06:26:11;;;;;;;14.82;9.65;;;;;;;;;;4941571;29;20059;-86
2023/09/11 06:28:37;;;;;;;19.00;9.80;;;;;;;;;;4941957;29;20124;-86
2023/09/11 06:31:04;;;;;;;15.75;8.93;;;;;;;;;;4942076;29;20032;-88
2023/09/11 06:33:30;;;;;;;21.65;8.88;;;;;;;;;;4950053;28;20027;-88
2023/09/11 06:35:56;;;;;;;16.30;8.55;;;;;;;;;;4949609;29;20056;-88
2023/09/11 06:38:22;;;;;;;19.75;9.68;;;;;;;;;;4950215;28;20008;-88
2023/09/11 06:40:48;;;;;;;15.95;9.77;;;;;;;;;;4957699;28;20040;-87
2023/09/11 06:43:14;;;;;;;16.75;9.52;;;;;;;;;;4947863;28;20039;-88
2023/09/11 06:45:41;;;;;;;16.02;9.10;;;;;;;;;;4938460;29;20035;-87
2023/09/11 06:48:08;;;;;;;17.55;8.85;;;;;;;;;;4934200;29;20489;-86
2023/09/11 06:50:34;;;;;;;17.52;9.15;;;;;;;;;;4925706;29;20058;-88
2023/09/11 06:53:00;;;;;;;19.67;8.95;;;;;;;;;;4937389;29;20035;-87
2023/09/11 06:55:26;;;;;;;18.38;9.68;;;;;;;;;;4939631;29;20140;-86
2023/09/11 06:57:56;;;;;;;20.27;9.50;;;;;;;;;;4936598;29;20029;-88
2023/09/11 07:00:22;;;;;;;16.58;9.38;;;;;;;;;;4937082;29;20028;-87
2023/09/11 07:02:49;;;;;;;18.88;9.25;;;;;;;;;;4939556;29;20036;-89
2023/09/11 07:05:16;;;;;;;18.52;9.90;;;;;;;;;;4941054;29;20036;-89
2023/09/11 07:07:42;;;;;;;17.13;8.95;;;;;;;;;;4939207;29;20059;-87
2023/09/11 07:10:11;;;;;;;19.58;9.55;;;19.90;99.90;;;;;;4941872;29;20031;-87
2023/09/11 07:12:37;;;;;;;19.57;9.37;;;;;;;;;;4935251;29;20066;-86
2023/09/11 07:15:05;;;;;;;14.20;8.70;;;19.90;99.90;;;;;;4936428;28;20375;-87
2023/09/11 07:17:30;;;;;;;17.27;9.23;;;20.30;99.90;;;;;;4940720;29;20092;-87
2023/09/11 07:19:56;;;;;;;20.70;9.65;;;;;;;;;;4938047;29;20055;-85
2023/09/11 07:22:22;;;;;;;16.55;9.10;;;20.50;99.90;;;;;;4940420;29;20051;-87
2023/09/11 07:24:48;;;;;;;12.32;8.70;;;20.60;99.90;;;;;;4938363;29;20042;-87
2023/09/11 07:27:14;;;;;;;19.80;9.30;;;;;;;;;;4939252;29;20024;-90
2023/09/11 07:29:40;;;;;;;20.13;9.23;;;;;;;;;;4935384;29;20020;-84
2023/09/11 07:32:06;;;;;;;15.18;8.43;;;;;;;;;;4938346;29;20042;-88
2023/09/11 07:34:32;;;;;;;15.70;8.05;;;;;;;;;;4936815;29;20028;-87
2023/09/11 07:36:58;;;;;;;18.58;8.77;;;;;;;;;;4938901;29;20089;-85
2023/09/11 07:39:24;;;;;;;16.60;8.50;;;;;;;;;;4939404;29;20502;-87
2023/09/11 07:41:50;;;;;;;13.23;8.02;;;;;;;;;;4936551;29;20162;-86
2023/09/11 07:44:16;;;;;;;13.18;7.75;;;;;;;;;;4939209;29;20032;-86
2023/09/11 07:46:42;;;;;;;13.55;7.68;;;;;;;;;;4935891;29;20401;-87
2023/09/11 07:49:08;;;;;;;16.15;8.63;;;;;;;;;;4934479;29;20040;-88
2023/09/11 07:51:34;;;;;;;25.15;8.52;;;;;;;;;;4941159;29;20103;-87
2023/09/11 07:54:00;;;;;;;16.88;7.82;;;;;;;;;;4936960;29;20055;-87
2023/09/11 07:56:28;;;;;;;12.05;7.72;;;;;;;;;;4939429;29;20039;-88
2023/09/11 07:58:54;;;;;;;20.95;8.20;;;22.30;99.90;;;;;;4935568;29;20034;-87
2023/09/11 08:01:21;;;;;;;18.15;9.20;;;;;;;;;;4937603;29;20023;-87
2023/09/11 08:03:48;;;;;;;16.25;8.70;;;;;;;;;;4941078;29;20039;-85
2023/09/11 08:06:14;;;;;;;15.50;7.47;;;;;;;;;;4939933;29;20020;-86
2023/09/11 08:08:40;;;;;;;15.80;7.53;;;;;;;;;;4938189;29;20147;-87
2023/09/11 08:11:15;;;;;;;13.60;7.45;;;;;;;;;;4940243;28;20036;-88
2023/09/11 08:13:41;;;;;;;15.35;6.82;;;;;;;;;;4948982;28;20027;-87
2023/09/11 08:16:07;;;;;;;12.88;7.45;;;;;;;;;;4939506;29;20024;-88
2023/09/11 08:18:34;;;;;;;17.48;7.60;;;;;;;;;;4932446;29;20027;-88
2023/09/11 08:21:00;;;;;;;15.15;7.43;;;;;;;;;;4931808;29;20091;-89
2023/09/11 08:23:26;;;;;;;17.13;7.15;;;;;;;;;;4941224;28;20618;-90
2023/09/11 08:26:11;;;;;;;11.65;6.80;;;;;;;;;;4941224;28;20027;-89
2023/09/11 08:28:37;;;;;;;13.50;6.95;;;;;;;;;;4942916;29;20059;-90
2023/09/11 08:31:05;;;;;;;12.30;6.85;;;;;;;;;;4934313;28;20035;-89
2023/09/11 08:33:31;;;;;;;16.00;7.15;;;;;;;;;;4938252;28;20068;-90
2023/09/11 08:35:57;;;;;;;13.48;6.03;;;;;;;;;;4941881;29;20518;-90
2023/09/11 08:38:30;;;;;;;14.00;7.03;;;;;;;;;;4939255;29;20038;-89
2023/09/11 08:41:05;;;;;;;11.68;6.63;;;;;;;;;;4930044;29;20619;-90
2023/09/11 08:43:32;;;;;;;12.50;5.97;;;;;;;;;;4929458;29;20403;-89
2023/09/11 08:46:05;;;;;;;15.13;6.80;;;;;;;;;;4939759;28;20119;-88
2023/09/11 08:48:33;;;;;;;12.07;6.30;;;;;;;;;;4943543;29;20036;-90
2023/09/11 08:51:14;;;;;;;10.85;5.53;;;;;;;;;;4921876;29;20557;-88
2023/09/11 08:53:43;;;;;;;11.05;6.30;;;;;;;;;;4937870;29;20046;-88
2023/09/11 08:56:13;;;;;;;14.77;6.43;;;;;;;;;;4924874;29;20031;-88
2023/09/11 08:58:42;;;;;;;16.33;6.35;;;;;;;;;;4932785;29;20031;-88
2023/09/11 09:01:11;;;;;;;12.98;5.70;;;;;;;;;;4943789;28;20040;-87
2023/09/11 09:03:43;;;;;;;12.38;6.13;;;;;;;;;;4938451;28;20040;-87
2023/09/11 09:06:13;;;;;;;18.83;6.95;;;;;;;;;;4954100;28;20039;-87
2023/09/11 09:08:39;;;;;;;15.48;5.60;;;;;;;;;;4935115;29;20037;-88
2023/09/11 09:11:08;;;;;;;11.13;5.80;;;;;;;;;;4941924;29;20040;-87
2023/09/11 09:13:37;;;;;;;10.50;6.27;;;;;;;;;;4933967;29;20036;-87
2023/09/11 09:16:14;;;;;;;13.40;5.87;;;;;;;;;;4940691;29;20060;-87
2023/09/11 09:18:49;;;;;;;14.10;5.60;;;;;;;;;;4942362;28;20032;-87
2023/09/11 09:21:25;;;;;;;12.90;5.43;;;;;;;;;;4935265;28;20060;-86
2023/09/11 09:23:55;;;;;;;8.63;4.97;;;;;;;;;;4943211;28;20043;-88
2023/09/11 09:26:22;;;;;;;10.63;5.38;;;;;;;;;;4952804;29;20083;-88
2023/09/11 09:28:51;;;;;;;19.33;5.68;;;;;;;;;;4944838;29;20036;-88
2023/09/11 09:31:33;;;;;;;13.57;5.50;;;;;;;;;;4946178;29;20091;-88
2023/09/11 09:33:59;;;;;;;10.85;5.60;;;;;;;;;;4948285;28;20059;-84
2023/09/11 09:36:25;;;;;;;12.48;5.75;;;;;;;;;;4940975;29;20402;-85
2023/09/11 09:38:51;;;;;;;10.82;5.70;;;;;;;;;;4936314;29;20066;-83
2023/09/11 09:41:20;;;;;;;11.30;5.43;;;;;;;;;;4943226;29;20027;-86
2023/09/11 09:43:55;;;;;;;11.82;5.35;;;;;;;;;;4944945;29;20015;-84
2023/09/11 09:46:22;;;;;;;12.07;5.68;;;;;;;;;;4944460;29;20051;-82
2023/09/11 09:48:48;;;;;;;10.55;5.45;;;;;;;;;;4943506;29;20130;-83
2023/09/11 09:51:15;;;;;;;13.43;5.18;;;;;;;;;;4945390;29;20028;-88
2023/09/11 09:53:44;;;;;;;14.23;5.35;;;;;;;;;;4945537;29;20032;-84
2023/09/11 09:56:11;;;;;;;10.05;5.20;;;;;;;;;;4947418;29;20036;-83
2023/09/11 09:58:38;;;;;;;14.93;5.45;;;;;;;;;;4941419;29;20031;-83
2023/09/11 10:01:08;;;;;;;11.05;5.45;;;;;;;;;;4941046;29;20028;-84
2023/09/11 10:03:42;;;;;;;10.13;5.25;;;27.90;99.90;;;;;;4940834;29;20027;-86
2023/09/11 10:06:13;;;;;;;9.32;5.43;;;27.70;99.90;;;;;;4938903;29;20043;-84
2023/09/11 10:08:40;;;;;;;13.10;5.45;;;;;;;;;;4938141;28;20035;-86
2023/09/11 10:11:06;;;;;;;13.27;5.38;;;;;;;;;;4936185;29;20031;-85
2023/09/11 10:13:33;;;;;;;11.55;5.20;;;;;;;;;;4941386;29;20036;-86
2023/09/11 10:16:00;;;;;;;8.93;4.95;;;;;;;;;;4934335;29;20031;-84
2023/09/11 10:18:26;;;;;;;11.15;5.57;;;;;;;;;;4933741;29;20066;-83
2023/09/11 10:20:52;;;;;;;9.88;5.43;;;;;;;;;;4930305;29;20091;-87
2023/09/11 10:23:18;;;;;;;10.48;5.20;;;;;;;;;;4948744;28;20028;-85
2023/09/11 10:25:46;;;;;;;7.35;5.32;;;;;;;;;;4932565;29;20112;-83
2023/09/11 10:28:21;;;;;;;12.05;4.95;;;;;;;;;;4936774;28;20090;-85
2023/09/11 10:30:51;;;;;;;9.25;5.50;;;;;;;;;;4954053;28;20091;-83
2023/09/11 10:33:21;;;;;;;7.88;4.60;;;28.60;99.90;;;;;;4933247;29;20075;-81
2023/09/11 10:35:48;;;;;;;11.05;5.28;;;;;;;;;;4938617;29;20039;-83
2023/09/11 10:38:16;;;;;;;14.20;6.43;;;;;;;;;;4931989;29;20038;-83
2023/09/11 10:40:43;;;;;;;11.10;6.10;;;;;;;;;;4933306;28;20015;-86
2023/09/11 10:43:09;;;;;;;9.25;5.28;;;;;;;;;;4937240;29;20194;-84
2023/09/11 10:45:36;;;;;;;12.80;5.90;;;;;;;;;;4930576;29;20034;-83
2023/09/11 10:48:02;;;;;;;13.65;6.22;;;;;;;;;;4937265;29;20115;-84
2023/09/11 10:50:42;;;;;;;9.77;5.30;;;29.20;99.30;;;;;;4925887;29;20042;-83
2023/09/11 10:53:08;;;;;;;7.63;5.20;;;;;;;;;;4937019;29;21927;-82
2023/09/11 10:55:35;;;;;;;7.85;4.93;;;;;;;;;;4936700;29;20040;-85
2023/09/11 10:58:05;;;;;;;9.30;5.10;;;;;;;;;;4933874;29;20597;-83
2023/09/11 11:00:36;;;;;;;10.98;5.43;;;29.30;99.20;;;;;;4927573;29;20036;-85
2023/09/11 11:03:02;;;;;;;37.80;19.88;;;;;;;;;;4936750;29;20418;-85
2023/09/11 11:05:28;;;;;;;10.45;5.53;;;;;;;;;;4933866;29;20035;-82
2023/09/11 11:07:54;;;;;;;8.07;5.28;;;;;;;;;;4933039;29;20441;-82
2023/09/11 11:10:20;;;;;;;19.48;11.63;;;;;;;;;;4933510;29;20534;-86
2023/09/11 11:12:47;;;;;;;11.82;5.43;;;;;;;;;;4938894;28;20023;-82
2023/09/11 11:15:21;;;;;;;11.73;5.68;;;;;;;;;;4936648;29;20505;-85
2023/09/11 11:17:47;;;;;;;9.05;6.00;;;;;;;;;;4933712;29;20028;-84
2023/09/11 11:20:17;;;;;;;8.88;5.72;;;;;;;;;;4932278;29;20024;-87
2023/09/11 11:22:43;;;;;;;8.63;5.03;;;;;;;;;;4937627;29;20105;-84
2023/09/11 11:25:12;;;;;;;8.77;5.13;;;;;;;;;;4933018;29;20036;-83
2023/09/11 11:27:39;;;;;;;11.98;6.00;;;;;;;;;;4949834;28;20035;-84
2023/09/11 11:30:06;;;;;;;20.38;13.13;;;;;;;;;;4933763;29;20040;-84
2023/09/11 11:32:33;;;;;;;9.88;7.68;;;;;;;;;;4925771;29;20036;-84
2023/09/11 11:35:02;;;;;;;10.18;6.25;;;;;;;;;;4926492;29;20515;-82
2023/09/11 11:37:30;;;;;;;10.30;5.68;;;;;;;;;;4937660;29;20031;-84
2023/09/11 11:39:57;;;;;;;10.20;6.05;;;;;;;;;;4925172;29;20040;-84
2023/09/11 11:42:23;;;;;;;10.75;5.85;;;;;;;;;;4934842;28;20027;-82
2023/09/11 11:44:49;;;;;;;7.90;5.50;;;;;;;;;;4936307;28;20477;-83
2023/09/11 11:47:19;;;;;;;10.77;6.13;;;;;;;;;;4936961;29;20048;-82
2023/09/11 11:49:46;;;;;;;10.82;5.97;;;;;;;;;;4936943;29;20023;-84
2023/09/11 11:52:12;;;;;;;9.18;5.50;;;;;;;;;;4934956;29;20063;-83
2023/09/11 11:54:38;;;;;;;13.73;5.40;;;;;;;;;;4932954;29;20042;-83
2023/09/11 11:57:05;;;;;;;10.98;5.70;;;;;;;;;;4952654;28;20028;-83
2023/09/11 11:59:32;;;;;;;10.77;5.30;;;;;;;;;;4937727;29;20039;-86
2023/09/11 12:01:58;;;;;;;10.98;6.18;;;;;;;;;;4938672;28;20389;-85
2023/09/11 12:04:24;;;;;;;10.38;6.07;;;;;;;;;;4932790;29;20074;-83
2023/09/11 12:06:52;;;;;;;8.48;5.13;;;;;;;;;;4938586;29;20035;-82
2023/09/11 12:09:19;;;;;;;7.60;5.03;;;;;;;;;;4948578;28;20119;-82
2023/09/11 12:11:45;;;;;;;9.15;4.85;;;;;;;;;;4932236;29;20059;-83
2023/09/11 12:14:13;;;;;;;7.53;4.85;;;30.70;94.00;;;;;;4930818;29;20032;-83
2023/09/11 12:16:39;;;;;;;8.70;5.15;;;;;;;;;;4936843;29;20501;-82
2023/09/11 12:19:05;;;;;;;8.23;4.97;;;;;;;;;;4933095;29;20493;-84
2023/09/11 12:21:31;;;;;;;9.15;4.97;;;;;;;;;;4937409;29;20509;-84
2023/09/11 12:23:59;;;;;;;12.43;5.97;;;;;;;;;;4937512;29;20080;-84
2023/09/11 12:26:25;;;;;;;9.45;4.53;;;;;;;;;;4934178;29;20040;-82
2023/09/11 12:28:51;;;;;;;7.90;4.90;;;;;;;;;;4928102;29;20056;-84
2023/09/11 12:31:19;;;;;;;8.63;4.47;;;;;;;;;;4957769;28;20019;-86
2023/09/11 12:33:51;;;;;;;7.60;4.90;;;;;;;;;;4949483;28;20024;-84
2023/09/11 12:36:21;;;;;;;7.28;4.32;;;;;;;;;;4932146;29;20146;-85
2023/09/11 12:38:50;;;;;;;6.97;5.13;;;;;;;;;;4938062;29;20066;-84
2023/09/11 12:41:17;;;;;;;7.10;5.25;;;;;;;;;;4936848;29;20118;-84
2023/09/11 12:43:44;;;;;;;7.50;4.32;;;;;;;;;;4933604;29;20040;-85
2023/09/11 12:46:11;;;;;;;7.90;4.40;;;;;;;;;;4933765;29;20034;-84
2023/09/11 12:48:39;;;;;;;7.30;4.80;;;;;;;;;;4932033;29;20099;-83
2023/09/11 12:51:06;;;;;;;11.00;5.07;;;;;;;;;;4946616;29;20056;-85
2023/09/11 12:53:32;;;;;;;9.45;5.43;;;;;;;;;;4942986;28;20040;-84
2023/09/11 12:55:58;;;;;;;6.65;4.53;;;;;;;;;;4950607;28;20035;-84
2023/09/11 12:58:27;;;;;;;9.57;4.85;;;;;;;;;;4968669;28;20128;-84
2023/09/11 13:00:53;;;;;;;8.35;4.55;;;;;;;;;;4954800;28;20015;-85
2023/09/11 13:03:19;;;;;;;7.55;4.70;;;;;;;;;;4948007;28;20023;-85
2023/09/11 13:05:46;;;;;;;8.20;4.57;;;;;;;;;;4938068;28;20039;-83
2023/09/11 13:08:12;;;;;;;7.88;4.70;;;;;;;;;;4941542;29;20047;-85
2023/09/11 13:10:38;;;;;;;7.30;4.28;;;;;;;;;;4938277;29;20035;-83
2023/09/11 13:13:05;;;;;;;7.00;4.45;;;31.50;90.30;;;;;;4935337;29;20036;-86
2023/09/11 13:15:31;;;;;;;7.22;4.32;;;;;;;;;;4934086;29;20089;-83
2023/09/11 13:17:57;;;;;;;7.55;4.43;;;;;;;;;;4936389;29;20158;-86
2023/09/11 13:20:23;;;;;;;8.55;4.20;;;;;;;;;;4944311;29;20055;-84
2023/09/11 13:22:49;;;;;;;10.40;4.40;;;;;;;;;;4935696;29;20028;-82
2023/09/11 13:25:15;;;;;;;10.65;4.75;;;;;;;;;;4933760;29;20031;-83
2023/09/11 13:27:41;;;;;;;12.13;4.55;;;;;;;;;;4936715;29;20467;-83
2023/09/11 13:30:08;;;;;;;9.25;4.35;;;;;;;;;;4941945;29;20031;-86
2023/09/11 13:32:37;;;;;;;9.50;4.22;;;;;;;;;;4938877;29;20125;-85
2023/09/11 13:35:04;;;;;;;8.27;3.85;;;;;;;;;;4935640;29;20886;-83
2023/09/11 13:37:32;;;;;;;12.50;4.38;;;;;;;;;;4937936;29;20110;-84
2023/09/11 13:39:58;;;;;;;15.57;5.20;;;;;;;;;;4940067;29;20032;-84
2023/09/11 13:42:25;;;;;;;12.55;4.10;;;;;;;;;;4934249;29;20050;-83
2023/09/11 13:44:56;;;;;;;10.30;4.18;;;32.20;80.00;;;;;;4931034;29;20051;-84
2023/09/11 13:47:22;;;;;;;10.85;3.97;;;;;;;;;;4945757;29;20023;-84
2023/09/11 13:49:48;;;;;;;11.13;3.97;;;;;;;;;;4942565;28;20106;-83
2023/09/11 13:52:14;;;;;;;10.98;4.20;;;;;;;;;;4937433;29;20207;-82
2023/09/11 13:54:44;;;;;;;10.80;4.15;;;;;;;;;;4942043;29;20034;-84
2023/09/11 13:57:10;;;;;;;11.00;4.65;;;;;;;;;;4937101;29;20150;-84
2023/09/11 13:59:36;;;;;;;7.97;4.45;;;;;;;;;;4934135;29;20135;-83
2023/09/11 14:02:02;;;;;;;8.98;4.50;;;;;;;;;;4931220;29;20079;-83
2023/09/11 14:04:28;;;;;;;7.88;4.32;;;;;;;;;;4930278;29;20031;-82
2023/09/11 14:06:54;;;;;;;9.73;3.83;;;;;;;;;;4938542;29;20090;-84
2023/09/11 14:09:20;;;;;;;11.63;4.18;;;;;;;;;;4929713;29;20047;-84
2023/09/11 14:11:46;;;;;;;10.07;4.10;;;;;;;;;;4935159;29;20532;-84
2023/09/11 14:14:12;;;;;;;8.98;4.35;;;;;;;;;;4932497;28;20466;-83
2023/09/11 14:16:38;;;;;;;9.57;4.32;;;;;;;;;;4945696;28;20040;-84
2023/09/11 14:19:07;;;;;;;10.15;4.50;;;;;;;;;;4935328;28;20031;-83
2023/09/11 14:21:33;;;;;;;9.85;4.35;;;;;;;;;;4927008;29;20043;-86
2023/09/11 14:23:59;;;;;;;9.75;4.82;;;;;;;;;;4933283;29;20474;-83
2023/09/11 14:26:26;;;;;;;9.75;4.03;;;;;;;;;;4932154;29;20032;-85
2023/09/11 14:28:52;;;;;;;8.80;4.13;;;;;;;;;;4935116;29;20027;-85
2023/09/11 14:31:19;;;;;;;9.00;4.07;;;32.30;77.80;;;;;;4930602;29;20413;-84
2023/09/11 14:33:45;;;;;;;10.88;4.72;;;;;;;;;;4939839;28;20106;-83